Terminal Aerodrome Forecast
Issued by NWS

Home | Current Version | Previous Version | Text Only | Print | Product List | Glossary On
Versions: 1 2 3 4 5 6 7 8 9 10 11 12 13 14 15 16 17 18 19 20 21
000
FTUS45 KBOI 240138 AAB
TAFTWF
TAF AMD
KTWF 240138Z 2402/2424 23010KT P6SM BKN060 OVC090
     FM240300 20010KT P6SM SCT070 BKN200
     FM241500 21010KT P6SM VCSH SCT060 BKN100
     FM242100 25015KT P6SM -SHRA VCTS SCT050CB BKN100=

USA.gov is the U.S. government's official web portal to all federal, state and local government web resources and services.